Isla Saona, Dominican Republic
Current Conditions -  °F | °C
As of 2:00 PM on Thursday 23 Oct 2014 (Local Time) from MDPC Reporting Station
Scattered Clouds Scattered Clouds  
Wind Chill: 86°   Ceiling: Unl
Heat Index: 95°   Visibility: 6mi
Dew Point: 75°   Wind: 9mph
Humidity: 70%   Direction: 160°SSE
Pressure: 29.88"   Gusts: NA
Location:  18.09°N, 67.89°W
Report Text: MDPC 231800Z 16008KT 9999 FEW020 SCT300 30/24 Q1012
Loading
Personal Weather Stations






























Interactive Weather Map
Tropical Storm Tracking
New forecast layout! Learn more

10-Day Weather Forecast

Advertisements
Track Severe Weather on mobile